sensor_id;sensor_type;location;lat;lon;timestamp;temperature;humidity
3778;DHT22;1904;50.076;8.660;2023-02-05T00:01:44;3.90;1.00
3778;DHT22;1904;50.076;8.660;2023-02-05T00:07:14;4.00;1.00
3778;DHT22;1904;50.076;8.660;2023-02-05T00:09:56;3.90;1.00
3778;DHT22;1904;50.076;8.660;2023-02-05T00:12:21;3.90;1.00
3778;DHT22;1904;50.076;8.660;2023-02-05T00:17:44;3.90;1.00
3778;DHT22;1904;50.076;8.660;2023-02-05T00:23:03;3.90;1.00
3778;DHT22;1904;50.076;8.660;2023-02-05T00:25:29;4.00;1.00
3778;DHT22;1904;50.076;8.660;2023-02-05T00:28:08;4.00;1.00
3778;DHT22;1904;50.076;8.660;2023-02-05T00:30:34;4.10;1.00
3778;DHT22;1904;50.076;8.660;2023-02-05T00:32:59;4.20;1.00
3778;DHT22;1904;50.076;8.660;2023-02-05T00:38:14;4.30;1.00
3778;DHT22;1904;50.076;8.660;2023-02-05T00:40:56;4.30;1.00
3778;DHT22;1904;50.076;8.660;2023-02-05T00:43:21;4.30;1.00
3778;DHT22;1904;50.076;8.660;2023-02-05T00:45:50;4.30;1.00
3778;DHT22;1904;50.076;8.660;2023-02-05T00:48:20;4.30;1.00
3778;DHT22;1904;50.076;8.660;2023-02-05T00:50:50;4.30;1.00
3778;DHT22;1904;50.076;8.660;2023-02-05T00:53:20;4.20;1.00
3778;DHT22;1904;50.076;8.660;2023-02-05T00:56:02;4.20;1.00
3778;DHT22;1904;50.076;8.660;2023-02-05T00:58:44;4.10;1.00
3778;DHT22;1904;50.076;8.660;2023-02-05T01:01:14;4.10;1.00
3778;DHT22;1904;50.076;8.660;2023-02-05T01:03:44;4.00;1.00
3778;DHT22;1904;50.076;8.660;2023-02-05T01:06:14;3.90;1.00
3778;DHT22;1904;50.076;8.660;2023-02-05T01:08:44;3.80;1.00
3778;DHT22;1904;50.076;8.660;2023-02-05T01:11:14;3.70;1.00
3778;DHT22;1904;50.076;8.660;2023-02-05T01:13:44;3.60;1.00
3778;DHT22;1904;50.076;8.660;2023-02-05T01:16:14;3.50;1.00
3778;DHT22;1904;50.076;8.660;2023-02-05T01:18:39;3.40;1.00
3778;DHT22;1904;50.076;8.660;2023-02-05T01:21:05;3.30;1.00
3778;DHT22;1904;50.076;8.660;2023-02-05T01:23:44;3.20;1.00
3778;DHT22;1904;50.076;8.660;2023-02-05T01:26:20;3.10;1.00
3778;DHT22;1904;50.076;8.660;2023-02-05T01:31:44;3.00;1.00
3778;DHT22;1904;50.076;8.660;2023-02-05T01:46:26;3.00;1.00
3778;DHT22;1904;50.076;8.660;2023-02-05T01:58:02;3.30;1.00
3778;DHT22;1904;50.076;8.660;2023-02-05T02:00:44;3.30;1.00
3778;DHT22;1904;50.076;8.660;2023-02-05T02:03:14;3.30;1.00
3778;DHT22;1904;50.076;8.660;2023-02-05T02:05:44;3.40;1.00
3778;DHT22;1904;50.076;8.660;2023-02-05T02:08:14;3.40;1.00
3778;DHT22;1904;50.076;8.660;2023-02-05T02:13:28;3.50;1.00
3778;DHT22;1904;50.076;8.660;2023-02-05T02:15:55;3.60;1.00
3778;DHT22;1904;50.076;8.660;2023-02-05T02:18:26;3.70;1.00
3778;DHT22;1904;50.076;8.660;2023-02-05T02:23:46;3.70;1.00
3778;DHT22;1904;50.076;8.660;2023-02-05T02:26:30;3.80;1.00
3778;DHT22;1904;50.076;8.660;2023-02-05T02:29:09;3.80;1.00
3778;DHT22;1904;50.076;8.660;2023-02-05T02:34:10;3.80;1.00
3778;DHT22;1904;50.076;8.660;2023-02-05T02:39:17;3.90;1.00
3778;DHT22;1904;50.076;8.660;2023-02-05T02:44:59;3.80;1.00
3778;DHT22;1904;50.076;8.660;2023-02-05T02:50:44;3.90;1.00
3778;DHT22;1904;50.076;8.660;2023-02-05T02:56:09;3.90;1.00
3778;DHT22;1904;50.076;8.660;2023-02-05T02:58:41;3.90;1.00
3778;DHT22;1904;50.076;8.660;2023-02-05T03:01:07;3.90;1.00
3778;DHT22;1904;50.076;8.660;2023-02-05T03:03:35;3.90;1.00
3778;DHT22;1904;50.076;8.660;2023-02-05T03:06:08;4.00;1.00
3778;DHT22;1904;50.076;8.660;2023-02-05T03:08:46;4.00;1.00
3778;DHT22;1904;50.076;8.660;2023-02-05T03:14:09;4.10;1.00
3778;DHT22;1904;50.076;8.660;2023-02-05T03:16:44;4.10;1.00
3778;DHT22;1904;50.076;8.660;2023-02-05T03:19:14;4.20;1.00
3778;DHT22;1904;50.076;8.660;2023-02-05T03:21:45;4.20;1.00
3778;DHT22;1904;50.076;8.660;2023-02-05T03:24:14;4.20;1.00
3778;DHT22;1904;50.076;8.660;2023-02-05T03:26:44;4.20;1.00
3778;DHT22;1904;50.076;8.660;2023-02-05T03:29:15;4.10;1.00
3778;DHT22;1904;50.076;8.660;2023-02-05T03:54:44;4.30;1.00
3778;DHT22;1904;50.076;8.660;2023-02-05T03:58:18;4.30;1.00
3778;DHT22;1904;50.076;8.660;2023-02-05T04:00:12;4.30;1.00
3778;DHT22;1904;50.076;8.660;2023-02-05T04:05:44;4.30;1.00
3778;DHT22;1904;50.076;8.660;2023-02-05T04:08:10;4.40;1.00
3778;DHT22;1904;50.076;8.660;2023-02-05T04:10:38;4.40;1.00
3778;DHT22;1904;50.076;8.660;2023-02-05T04:13:08;4.40;1.00
3778;DHT22;1904;50.076;8.660;2023-02-05T04:15:44;4.30;1.00
3778;DHT22;1904;50.076;8.660;2023-02-05T04:18:14;4.30;1.00
3778;DHT22;1904;50.076;8.660;2023-02-05T04:20:44;4.30;1.00
3778;DHT22;1904;50.076;8.660;2023-02-05T04:23:14;4.40;1.00
3778;DHT22;1904;50.076;8.660;2023-02-05T04:25:44;4.40;1.00
3778;DHT22;1904;50.076;8.660;2023-02-05T04:28:14;4.40;1.00
3778;DHT22;1904;50.076;8.660;2023-02-05T04:30:44;4.50;1.00
3778;DHT22;1904;50.076;8.660;2023-02-05T04:33:10;4.50;1.00
3778;DHT22;1904;50.076;8.660;2023-02-05T04:35:35;4.40;1.00
3778;DHT22;1904;50.076;8.660;2023-02-05T04:38:08;4.40;1.00
3778;DHT22;1904;50.076;8.660;2023-02-05T04:40:38;4.50;1.00
3778;DHT22;1904;50.076;8.660;2023-02-05T04:43:04;4.50;1.00
3778;DHT22;1904;50.076;8.660;2023-02-05T04:45:32;4.50;1.00
3778;DHT22;1904;50.076;8.660;2023-02-05T04:47:58;4.50;1.00
3778;DHT22;1904;50.076;8.660;2023-02-05T04:50:25;4.50;1.00
3778;DHT22;1904;50.076;8.660;2023-02-05T04:52:51;4.50;1.00
3778;DHT22;1904;50.076;8.660;2023-02-05T04:55:20;4.50;1.00
3778;DHT22;1904;50.076;8.660;2023-02-05T04:57:46;4.60;1.00
3778;DHT22;1904;50.076;8.660;2023-02-05T05:00:14;4.60;1.00
3778;DHT22;1904;50.076;8.660;2023-02-05T05:02:40;4.60;1.00
3778;DHT22;1904;50.076;8.660;2023-02-05T05:05:05;4.60;1.00
3778;DHT22;1904;50.076;8.660;2023-02-05T05:07:38;4.60;1.00
3778;DHT22;1904;50.076;8.660;2023-02-05T05:10:14;4.60;1.00
3778;DHT22;1904;50.076;8.660;2023-02-05T05:12:39;4.60;1.00
3778;DHT22;1904;50.076;8.660;2023-02-05T05:18:14;4.50;1.00
3778;DHT22;1904;50.076;8.660;2023-02-05T05:20:44;4.50;1.00
3778;DHT22;1904;50.076;8.660;2023-02-05T05:23:14;4.60;1.00
3778;DHT22;1904;50.076;8.660;2023-02-05T05:25:45;4.60;1.00
3778;DHT22;1904;50.076;8.660;2023-02-05T05:28:14;4.70;1.00
3778;DHT22;1904;50.076;8.660;2023-02-05T05:33:43;4.80;1.00
3778;DHT22;1904;50.076;8.660;2023-02-05T05:36:09;4.80;1.00
3778;DHT22;1904;50.076;8.660;2023-02-05T05:41:29;4.90;1.00
3778;DHT22;1904;50.076;8.660;2023-02-05T05:44:14;4.80;1.00
3778;DHT22;1904;50.076;8.660;2023-02-05T05:46:44;4.80;1.00
3778;DHT22;1904;50.076;8.660;2023-02-05T05:49:10;4.70;1.00
3778;DHT22;1904;50.076;8.660;2023-02-05T05:51:38;4.80;1.00
3778;DHT22;1904;50.076;8.660;2023-02-05T05:54:14;4.80;1.00
3778;DHT22;1904;50.076;8.660;2023-02-05T05:56:44;4.80;1.00
3778;DHT22;1904;50.076;8.660;2023-02-05T05:59:14;4.80;1.00
3778;DHT22;1904;50.076;8.660;2023-02-05T06:01:44;4.90;1.00
3778;DHT22;1904;50.076;8.660;2023-02-05T06:04:10;4.90;1.00
3778;DHT22;1904;50.076;8.660;2023-02-05T06:12:32;4.90;1.00
3778;DHT22;1904;50.076;8.660;2023-02-05T06:15:02;4.90;1.00
3778;DHT22;1904;50.076;8.660;2023-02-05T06:17:28;4.90;1.00
3778;DHT22;1904;50.076;8.660;2023-02-05T06:20:03;4.90;1.00
3778;DHT22;1904;50.076;8.660;2023-02-05T06:22:28;4.90;1.00
3778;DHT22;1904;50.076;8.660;2023-02-05T06:27:44;4.90;1.00
3778;DHT22;1904;50.076;8.660;2023-02-05T06:30:10;4.90;1.00
3778;DHT22;1904;50.076;8.660;2023-02-05T06:32:38;4.80;1.00
3778;DHT22;1904;50.076;8.660;2023-02-05T06:35:08;4.70;1.00
3778;DHT22;1904;50.076;8.660;2023-02-05T06:37:44;4.60;1.00
3778;DHT22;1904;50.076;8.660;2023-02-05T06:40:10;4.60;1.00
3778;DHT22;1904;50.076;8.660;2023-02-05T06:42:36;4.60;1.00
3778;DHT22;1904;50.076;8.660;2023-02-05T06:45:02;4.70;1.00
3778;DHT22;1904;50.076;8.660;2023-02-05T06:47:38;4.70;1.00
3778;DHT22;1904;50.076;8.660;2023-02-05T06:50:14;4.80;1.00
3778;DHT22;1904;50.076;8.660;2023-02-05T06:52:44;4.80;1.00
3778;DHT22;1904;50.076;8.660;2023-02-05T06:55:10;4.90;1.00
3778;DHT22;1904;50.076;8.660;2023-02-05T06:57:35;4.90;1.00
3778;DHT22;1904;50.076;8.660;2023-02-05T07:00:08;4.90;1.00
3778;DHT22;1904;50.076;8.660;2023-02-05T07:02:34;4.90;1.00
3778;DHT22;1904;50.076;8.660;2023-02-05T07:05:08;4.90;1.00
3778;DHT22;1904;50.076;8.660;2023-02-05T07:07:34;4.90;1.00
3778;DHT22;1904;50.076;8.660;2023-02-05T07:10:00;4.90;1.00
3778;DHT22;1904;50.076;8.660;2023-02-05T07:12:26;4.90;1.00
3778;DHT22;1904;50.076;8.660;2023-02-05T07:14:52;4.90;1.00
3778;DHT22;1904;50.076;8.660;2023-02-05T07:17:32;4.80;1.00
3778;DHT22;1904;50.076;8.660;2023-02-05T07:19:58;4.90;1.00
3778;DHT22;1904;50.076;8.660;2023-02-05T07:25:20;4.90;1.00
3778;DHT22;1904;50.076;8.660;2023-02-05T07:27:46;4.90;1.00
3778;DHT22;1904;50.076;8.660;2023-02-05T07:30:11;4.90;1.00
3778;DHT22;1904;50.076;8.660;2023-02-05T07:32:37;4.80;1.00
3778;DHT22;1904;50.076;8.660;2023-02-05T07:35:03;4.70;1.00
3778;DHT22;1904;50.076;8.660;2023-02-05T07:37:28;4.80;1.00
3778;DHT22;1904;50.076;8.660;2023-02-05T07:40:08;4.90;1.00
3778;DHT22;1904;50.076;8.660;2023-02-05T07:42:34;4.90;1.00
3778;DHT22;1904;50.076;8.660;2023-02-05T07:45:02;4.90;1.00
3778;DHT22;1904;50.076;8.660;2023-02-05T07:47:38;4.90;1.00
3778;DHT22;1904;50.076;8.660;2023-02-05T07:50:04;4.90;1.00
3778;DHT22;1904;50.076;8.660;2023-02-05T07:52:32;4.80;1.00
3778;DHT22;1904;50.076;8.660;2023-02-05T07:58:08;4.80;1.00
3778;DHT22;1904;50.076;8.660;2023-02-05T08:00:34;4.80;1.00
3778;DHT22;1904;50.076;8.660;2023-02-05T08:03:00;4.90;1.00
3778;DHT22;1904;50.076;8.660;2023-02-05T08:05:26;4.90;1.00
3778;DHT22;1904;50.076;8.660;2023-02-05T08:07:52;4.90;1.00
3778;DHT22;1904;50.076;8.660;2023-02-05T08:10:20;4.90;1.00
3778;DHT22;1904;50.076;8.660;2023-02-05T08:12:50;4.90;1.00
3778;DHT22;1904;50.076;8.660;2023-02-05T08:15:20;5.00;1.00
3778;DHT22;1904;50.076;8.660;2023-02-05T08:17:46;5.10;1.00
3778;DHT22;1904;50.076;8.660;2023-02-05T08:20:14;5.20;1.00
3778;DHT22;1904;50.076;8.660;2023-02-05T08:22:44;5.20;1.00
3778;DHT22;1904;50.076;8.660;2023-02-05T08:25:11;5.30;1.00
3778;DHT22;1904;50.076;8.660;2023-02-05T08:27:37;5.30;1.00
3778;DHT22;1904;50.076;8.660;2023-02-05T08:30:11;5.40;1.00
3778;DHT22;1904;50.076;8.660;2023-02-05T08:32:48;5.40;1.00
3778;DHT22;1904;50.076;8.660;2023-02-05T08:35:14;5.40;1.00
3778;DHT22;1904;50.076;8.660;2023-02-05T08:37:39;5.40;1.00
3778;DHT22;1904;50.076;8.660;2023-02-05T08:40:08;5.60;1.00
3778;DHT22;1904;50.076;8.660;2023-02-05T08:42:38;5.60;1.00
3778;DHT22;1904;50.076;8.660;2023-02-05T08:45:14;5.60;1.00
3778;DHT22;1904;50.076;8.660;2023-02-05T08:47:44;5.60;1.00
3778;DHT22;1904;50.076;8.660;2023-02-05T08:50:14;5.60;1.00
3778;DHT22;1904;50.076;8.660;2023-02-05T08:52:44;5.50;1.00
3778;DHT22;1904;50.076;8.660;2023-02-05T08:55:10;5.40;1.00
3778;DHT22;1904;50.076;8.660;2023-02-05T08:57:38;5.40;1.00
3778;DHT22;1904;50.076;8.660;2023-02-05T09:00:08;5.40;1.00
3778;DHT22;1904;50.076;8.660;2023-02-05T09:02:34;5.40;1.00
3778;DHT22;1904;50.076;8.660;2023-02-05T09:05:14;5.40;1.00
3778;DHT22;1904;50.076;8.660;2023-02-05T09:07:40;5.50;1.00
3778;DHT22;1904;50.076;8.660;2023-02-05T09:10:10;5.50;1.00
3778;DHT22;1904;50.076;8.660;2023-02-05T09:12:36;5.50;1.00
3778;DHT22;1904;50.076;8.660;2023-02-05T09:15:02;5.50;1.00
3778;DHT22;1904;50.076;8.660;2023-02-05T09:17:32;5.60;1.00
3778;DHT22;1904;50.076;8.660;2023-02-05T09:19:58;5.70;1.00
3778;DHT22;1904;50.076;8.660;2023-02-05T09:22:26;5.60;1.00
3778;DHT22;1904;50.076;8.660;2023-02-05T09:24:56;5.50;1.00
3778;DHT22;1904;50.076;8.660;2023-02-05T09:27:32;5.50;1.00
3778;DHT22;1904;50.076;8.660;2023-02-05T09:30:02;5.60;1.00
3778;DHT22;1904;50.076;8.660;2023-02-05T09:32:44;5.50;1.00
3778;DHT22;1904;50.076;8.660;2023-02-05T09:35:14;5.60;1.00
3778;DHT22;1904;50.076;8.660;2023-02-05T09:49:27;5.60;1.00
3778;DHT22;1904;50.076;8.660;2023-02-05T09:52:06;5.60;1.00
3778;DHT22;1904;50.076;8.660;2023-02-05T09:54:37;5.70;1.00
3778;DHT22;1904;50.076;8.660;2023-02-05T09:57:06;5.80;1.00
3778;DHT22;1904;50.076;8.660;2023-02-05T09:59:50;5.80;1.00
3778;DHT22;1904;50.076;8.660;2023-02-05T10:22:06;6.00;1.00
3778;DHT22;1904;50.076;8.660;2023-02-05T10:27:54;6.10;1.00
3778;DHT22;1904;50.076;8.660;2023-02-05T10:35:56;6.10;1.00
3778;DHT22;1904;50.076;8.660;2023-02-05T10:38:24;6.20;1.00
3778;DHT22;1904;50.076;8.660;2023-02-05T10:40:50;6.30;1.00
3778;DHT22;1904;50.076;8.660;2023-02-05T10:43:24;6.30;1.00
3778;DHT22;1904;50.076;8.660;2023-02-05T10:46:02;6.30;1.00
3778;DHT22;1904;50.076;8.660;2023-02-05T10:53:48;6.40;1.00
3778;DHT22;1904;50.076;8.660;2023-02-05T10:56:20;6.50;1.00
3778;DHT22;1904;50.076;8.660;2023-02-05T10:58:53;6.50;1.00
3778;DHT22;1904;50.076;8.660;2023-02-05T11:01:20;6.50;1.00
3778;DHT22;1904;50.076;8.660;2023-02-05T11:04:20;6.60;1.00
3778;DHT22;1904;50.076;8.660;2023-02-05T11:06:44;6.60;1.00
3778;DHT22;1904;50.076;8.660;2023-02-05T11:09:27;6.60;1.00
3778;DHT22;1904;50.076;8.660;2023-02-05T11:11:57;6.60;1.00
3778;DHT22;1904;50.076;8.660;2023-02-05T11:19:50;6.60;1.00
3778;DHT22;1904;50.076;8.660;2023-02-05T11:22:36;6.60;1.00
3778;DHT22;1904;50.076;8.660;2023-02-05T11:25:13;6.70;1.00
3778;DHT22;1904;50.076;8.660;2023-02-05T11:27:53;6.80;1.00
3778;DHT22;1904;50.076;8.660;2023-02-05T11:35:48;6.80;1.00
3778;DHT22;1904;50.076;8.660;2023-02-05T11:46:13;7.00;1.00
3778;DHT22;1904;50.076;8.660;2023-02-05T11:48:40;7.00;1.00
3778;DHT22;1904;50.076;8.660;2023-02-05T11:51:11;7.00;1.00
3778;DHT22;1904;50.076;8.660;2023-02-05T11:53:37;7.10;1.00
3778;DHT22;1904;50.076;8.660;2023-02-05T11:56:10;7.10;1.00
3778;DHT22;1904;50.076;8.660;2023-02-05T11:58:37;7.10;1.00
3778;DHT22;1904;50.076;8.660;2023-02-05T12:01:24;7.10;1.00
3778;DHT22;1904;50.076;8.660;2023-02-05T12:03:57;7.10;1.00
3778;DHT22;1904;50.076;8.660;2023-02-05T12:06:25;7.10;1.00
3778;DHT22;1904;50.076;8.660;2023-02-05T12:08:54;7.10;1.00
3778;DHT22;1904;50.076;8.660;2023-02-05T12:26:59;7.10;1.00
3778;DHT22;1904;50.076;8.660;2023-02-05T12:40:36;7.60;1.00
3778;DHT22;1904;50.076;8.660;2023-02-05T12:49:01;7.80;1.00
3778;DHT22;1904;50.076;8.660;2023-02-05T13:03:06;8.30;1.00
3778;DHT22;1904;50.076;8.660;2023-02-05T13:14:16;8.80;1.00
3778;DHT22;1904;50.076;8.660;2023-02-05T13:19:52;9.00;1.00
3778;DHT22;1904;50.076;8.660;2023-02-05T13:34:03;9.00;1.00
3778;DHT22;1904;50.076;8.660;2023-02-05T14:01:40;9.00;1.00
3778;DHT22;1904;50.076;8.660;2023-02-05T14:04:07;9.00;1.00
3778;DHT22;1904;50.076;8.660;2023-02-05T14:06:41;8.90;1.00
3778;DHT22;1904;50.076;8.660;2023-02-05T14:23:14;8.50;1.00
3778;DHT22;1904;50.076;8.660;2023-02-05T14:30:57;8.30;1.00
3778;DHT22;1904;50.076;8.660;2023-02-05T14:36:26;8.20;1.00
3778;DHT22;1904;50.076;8.660;2023-02-05T14:39:04;8.10;1.00
3778;DHT22;1904;50.076;8.660;2023-02-05T14:56:36;7.80;1.00
3778;DHT22;1904;50.076;8.660;2023-02-05T15:02:44;7.60;1.00
3778;DHT22;1904;50.076;8.660;2023-02-05T15:04:56;7.70;1.00
3778;DHT22;1904;50.076;8.660;2023-02-05T15:07:26;7.60;1.00
3778;DHT22;1904;50.076;8.660;2023-02-05T15:12:38;7.30;1.00
3778;DHT22;1904;50.076;8.660;2023-02-05T15:15:24;7.30;1.00
3778;DHT22;1904;50.076;8.660;2023-02-05T15:18:01;7.30;1.00
3778;DHT22;1904;50.076;8.660;2023-02-05T15:20:32;7.30;1.00
3778;DHT22;1904;50.076;8.660;2023-02-05T15:29:22;7.10;1.00
3778;DHT22;1904;50.076;8.660;2023-02-05T15:40:22;7.00;1.00
3778;DHT22;1904;50.076;8.660;2023-02-05T15:42:51;7.00;1.00
3778;DHT22;1904;50.076;8.660;2023-02-05T15:48:06;6.90;1.00
3778;DHT22;1904;50.076;8.660;2023-02-05T15:53:46;6.90;1.00
3778;DHT22;1904;50.076;8.660;2023-02-05T15:56:15;6.90;1.00
3778;DHT22;1904;50.076;8.660;2023-02-05T15:58:57;6.90;1.00
3778;DHT22;1904;50.076;8.660;2023-02-05T16:18:36;6.70;1.00
3778;DHT22;1904;50.076;8.660;2023-02-05T16:21:12;6.60;1.00
3778;DHT22;1904;50.076;8.660;2023-02-05T16:23:46;6.60;1.00
3778;DHT22;1904;50.076;8.660;2023-02-05T16:35:27;6.50;1.00
3778;DHT22;1904;50.076;8.660;2023-02-05T16:37:54;6.40;1.00
3778;DHT22;1904;50.076;8.660;2023-02-05T16:40:33;6.40;1.00
3778;DHT22;1904;50.076;8.660;2023-02-05T16:48:38;6.30;1.00
3778;DHT22;1904;50.076;8.660;2023-02-05T16:51:27;6.30;1.00
3778;DHT22;1904;50.076;8.660;2023-02-05T16:53:51;6.30;1.00
3778;DHT22;1904;50.076;8.660;2023-02-05T16:58:51;6.30;1.00
3778;DHT22;1904;50.076;8.660;2023-02-05T17:04:21;6.30;1.00
3778;DHT22;1904;50.076;8.660;2023-02-05T17:06:58;6.30;1.00
3778;DHT22;1904;50.076;8.660;2023-02-05T17:20:23;6.10;1.00
3778;DHT22;1904;50.076;8.660;2023-02-05T17:28:32;6.10;1.00
3778;DHT22;1904;50.076;8.660;2023-02-05T17:31:02;6.00;1.00
3778;DHT22;1904;50.076;8.660;2023-02-05T17:33:45;6.00;1.00
3778;DHT22;1904;50.076;8.660;2023-02-05T17:39:26;6.00;1.00
3778;DHT22;1904;50.076;8.660;2023-02-05T17:41:52;6.00;1.00
3778;DHT22;1904;50.076;8.660;2023-02-05T17:44:33;6.00;1.00
3778;DHT22;1904;50.076;8.660;2023-02-05T17:47:08;6.00;1.00
3778;DHT22;1904;50.076;8.660;2023-02-05T17:49:39;6.00;1.00
3778;DHT22;1904;50.076;8.660;2023-02-05T17:52:08;5.90;1.00
3778;DHT22;1904;50.076;8.660;2023-02-05T17:54:34;6.00;1.00
3778;DHT22;1904;50.076;8.660;2023-02-05T18:02:40;5.90;1.00
3778;DHT22;1904;50.076;8.660;2023-02-05T18:08:09;5.90;1.00
3778;DHT22;1904;50.076;8.660;2023-02-05T18:10:35;6.00;1.00
3778;DHT22;1904;50.076;8.660;2023-02-05T18:13:01;6.00;1.00
3778;DHT22;1904;50.076;8.660;2023-02-05T18:15:32;6.00;1.00
3778;DHT22;1904;50.076;8.660;2023-02-05T18:18:02;6.00;1.00
3778;DHT22;1904;50.076;8.660;2023-02-05T18:20:33;6.00;1.00
3778;DHT22;1904;50.076;8.660;2023-02-05T18:23:02;6.00;1.00
3778;DHT22;1904;50.076;8.660;2023-02-05T18:28:21;6.00;1.00
3778;DHT22;1904;50.076;8.660;2023-02-05T18:31:04;6.00;1.00
3778;DHT22;1904;50.076;8.660;2023-02-05T18:33:46;6.00;1.00
3778;DHT22;1904;50.076;8.660;2023-02-05T18:36:26;6.00;1.00
3778;DHT22;1904;50.076;8.660;2023-02-05T18:39:08;6.00;1.00
3778;DHT22;1904;50.076;8.660;2023-02-05T18:41:45;6.00;1.00
3778;DHT22;1904;50.076;8.660;2023-02-05T18:44:10;6.10;1.00
3778;DHT22;1904;50.076;8.660;2023-02-05T18:46:38;6.10;1.00
3778;DHT22;1904;50.076;8.660;2023-02-05T18:51:56;6.10;1.00
3778;DHT22;1904;50.076;8.660;2023-02-05T18:54:22;6.10;1.00
3778;DHT22;1904;50.076;8.660;2023-02-05T18:59:44;6.00;1.00
3778;DHT22;1904;50.076;8.660;2023-02-05T19:02:26;6.10;1.00
3778;DHT22;1904;50.076;8.660;2023-02-05T19:07:56;6.10;1.00
3778;DHT22;1904;50.076;8.660;2023-02-05T19:10:27;6.10;1.00
3778;DHT22;1904;50.076;8.660;2023-02-05T19:12:56;6.10;1.00
3778;DHT22;1904;50.076;8.660;2023-02-05T19:18:14;6.10;1.00
3778;DHT22;1904;50.076;8.660;2023-02-05T19:20:44;6.20;1.00
3778;DHT22;1904;50.076;8.660;2023-02-05T19:23:10;6.20;1.00
3778;DHT22;1904;50.076;8.660;2023-02-05T19:25:36;6.20;1.00
3778;DHT22;1904;50.076;8.660;2023-02-05T19:28:02;6.20;1.00
3778;DHT22;1904;50.076;8.660;2023-02-05T19:30:34;6.20;1.00
3778;DHT22;1904;50.076;8.660;2023-02-05T19:33:03;6.20;1.00
3778;DHT22;1904;50.076;8.660;2023-02-05T19:47:20;6.30;1.00
3778;DHT22;1904;50.076;8.660;2023-02-05T19:49:51;6.20;1.00
3778;DHT22;1904;50.076;8.660;2023-02-05T19:52:18;6.20;1.00
3778;DHT22;1904;50.076;8.660;2023-02-05T19:54:44;6.20;1.00
3778;DHT22;1904;50.076;8.660;2023-02-05T20:00:15;6.20;1.00
3778;DHT22;1904;50.076;8.660;2023-02-05T20:02:44;6.20;1.00
3778;DHT22;1904;50.076;8.660;2023-02-05T20:17:27;6.00;1.00
3778;DHT22;1904;50.076;8.660;2023-02-05T20:19:57;6.00;1.00
3778;DHT22;1904;50.076;8.660;2023-02-05T20:22:27;6.00;1.00
3778;DHT22;1904;50.076;8.660;2023-02-05T20:27:51;6.00;1.00
3778;DHT22;1904;50.076;8.660;2023-02-05T20:30:33;5.90;1.00
3778;DHT22;1904;50.076;8.660;2023-02-05T20:33:27;5.90;1.00
3778;DHT22;1904;50.076;8.660;2023-02-05T20:47:56;5.90;1.00
3778;DHT22;1904;50.076;8.660;2023-02-05T21:02:09;5.80;1.00
3778;DHT22;1904;50.076;8.660;2023-02-05T21:04:38;5.80;1.00
3778;DHT22;1904;50.076;8.660;2023-02-05T21:09:54;5.80;1.00
3778;DHT22;1904;50.076;8.660;2023-02-05T21:12:27;5.80;1.00
3778;DHT22;1904;50.076;8.660;2023-02-05T21:14:57;5.80;1.00
3778;DHT22;1904;50.076;8.660;2023-02-05T21:17:26;5.70;1.00
3778;DHT22;1904;50.076;8.660;2023-02-05T21:20:08;5.70;1.00
3778;DHT22;1904;50.076;8.660;2023-02-05T21:22:39;5.60;1.00
3778;DHT22;1904;50.076;8.660;2023-02-05T21:25:09;5.50;1.00
3778;DHT22;1904;50.076;8.660;2023-02-05T21:27:45;5.50;1.00
3778;DHT22;1904;50.076;8.660;2023-02-05T21:30:27;5.40;1.00
3778;DHT22;1904;50.076;8.660;2023-02-05T21:45:21;5.40;1.00
3778;DHT22;1904;50.076;8.660;2023-02-05T21:48:03;5.40;1.00
3778;DHT22;1904;50.076;8.660;2023-02-05T21:50:39;5.50;1.00
3778;DHT22;1904;50.076;8.660;2023-02-05T21:53:09;5.40;1.00
3778;DHT22;1904;50.076;8.660;2023-02-05T21:55:45;5.50;1.00
3778;DHT22;1904;50.076;8.660;2023-02-05T21:58:14;5.40;1.00
3778;DHT22;1904;50.076;8.660;2023-02-05T22:06:39;5.50;1.00
3778;DHT22;1904;50.076;8.660;2023-02-05T22:18:09;5.50;1.00
3778;DHT22;1904;50.076;8.660;2023-02-05T22:20:39;5.50;1.00
3778;DHT22;1904;50.076;8.660;2023-02-05T22:23:04;5.50;1.00
3778;DHT22;1904;50.076;8.660;2023-02-05T22:25:30;5.50;1.00
3778;DHT22;1904;50.076;8.660;2023-02-05T22:27:55;5.50;1.00
3778;DHT22;1904;50.076;8.660;2023-02-05T22:30:27;5.50;1.00
3778;DHT22;1904;50.076;8.660;2023-02-05T22:32:57;5.50;1.00
3778;DHT22;1904;50.076;8.660;2023-02-05T22:35:27;5.50;1.00
3778;DHT22;1904;50.076;8.660;2023-02-05T22:37:52;5.50;1.00
3778;DHT22;1904;50.076;8.660;2023-02-05T22:43:04;5.50;1.00
3778;DHT22;1904;50.076;8.660;2023-02-05T22:45:39;5.50;1.00
3778;DHT22;1904;50.076;8.660;2023-02-05T22:48:06;5.50;1.00
3778;DHT22;1904;50.076;8.660;2023-02-05T22:50:39;5.50;1.00
3778;DHT22;1904;50.076;8.660;2023-02-05T22:53:09;5.50;1.00
3778;DHT22;1904;50.076;8.660;2023-02-05T22:55:35;5.50;1.00
3778;DHT22;1904;50.076;8.660;2023-02-05T22:58:03;5.40;1.00
3778;DHT22;1904;50.076;8.660;2023-02-05T23:00:33;5.40;1.00
3778;DHT22;1904;50.076;8.660;2023-02-05T23:02:59;5.40;1.00
3778;DHT22;1904;50.076;8.660;2023-02-05T23:05:25;5.30;1.00
3778;DHT22;1904;50.076;8.660;2023-02-05T23:07:53;5.20;1.00
3778;DHT22;1904;50.076;8.660;2023-02-05T23:10:20;5.10;1.00
3778;DHT22;1904;50.076;8.660;2023-02-05T23:12:51;5.00;1.00
3778;DHT22;1904;50.076;8.660;2023-02-05T23:15:21;4.90;1.00
3778;DHT22;1904;50.076;8.660;2023-02-05T23:17:51;4.90;1.00
3778;DHT22;1904;50.076;8.660;2023-02-05T23:23:09;4.80;1.00
3778;DHT22;1904;50.076;8.660;2023-02-05T23:25:34;4.80;1.00
3778;DHT22;1904;50.076;8.660;2023-02-05T23:28:03;4.90;1.00
3778;DHT22;1904;50.076;8.660;2023-02-05T23:30:33;4.90;1.00
3778;DHT22;1904;50.076;8.660;2023-02-05T23:32:58;5.00;1.90
3778;DHT22;1904;50.076;8.660;2023-02-05T23:35:24;5.00;2.70
3778;DHT22;1904;50.076;8.660;2023-02-05T23:46:34;5.00;5.40
3778;DHT22;1904;50.076;8.660;2023-02-05T23:52:03;5.10;5.00
3778;DHT22;1904;50.076;8.660;2023-02-05T23:54:29;5.10;3.10
3778;DHT22;1904;50.076;8.660;2023-02-05T23:56:54;5.10;1.60
3778;DHT22;1904;50.076;8.660;2023-02-05T23:59:20;5.10;1.40
